sensor_id;sensor_type;location;lat;lon;timestamp;pressure;altitude;pressure_sealevel;temperature;humidity
62942;BME280;49042;47.318;19.874;2023-01-10T00:01:58;99076.00;;;5.23;100.00
62942;BME280;49042;47.318;19.874;2023-01-10T00:05:00;99075.94;;;5.21;100.00
62942;BME280;49042;47.318;19.874;2023-01-10T00:08:03;99082.81;;;5.21;100.00
62942;BME280;49042;47.318;19.874;2023-01-10T00:11:05;99086.13;;;5.15;100.00
62942;BME280;49042;47.318;19.874;2023-01-10T00:14:27;99079.91;;;5.10;100.00
62942;BME280;49042;47.318;19.874;2023-01-10T00:17:30;99085.06;;;5.10;100.00
62942;BME280;49042;47.318;19.874;2023-01-10T00:20:32;99079.97;;;5.11;100.00
62942;BME280;49042;47.318;19.874;2023-01-10T00:23:35;99077.47;;;5.14;100.00
62942;BME280;49042;47.318;19.874;2023-01-10T00:26:36;99074.06;;;5.16;100.00
62942;BME280;49042;47.318;19.874;2023-01-10T00:29:38;99074.34;;;5.25;100.00
62942;BME280;49042;47.318;19.874;2023-01-10T00:32:43;99066.09;;;5.37;100.00
62942;BME280;49042;47.318;19.874;2023-01-10T00:35:46;99067.59;;;5.60;100.00
62942;BME280;49042;47.318;19.874;2023-01-10T00:38:48;99073.56;;;5.57;100.00
62942;BME280;49042;47.318;19.874;2023-01-10T00:41:50;99060.34;;;5.78;100.00
62942;BME280;49042;47.318;19.874;2023-01-10T00:45:10;99063.75;;;6.08;100.00
62942;BME280;49042;47.318;19.874;2023-01-10T00:48:12;99061.38;;;6.16;100.00
62942;BME280;49042;47.318;19.874;2023-01-10T00:51:14;99061.63;;;6.26;100.00
62942;BME280;49042;47.318;19.874;2023-01-10T00:54:16;99063.37;;;6.27;100.00
62942;BME280;49042;47.318;19.874;2023-01-10T00:57:17;99062.22;;;6.15;100.00
62942;BME280;49042;47.318;19.874;2023-01-10T01:00:19;99054.56;;;6.20;100.00
62942;BME280;49042;47.318;19.874;2023-01-10T01:03:21;99054.09;;;6.03;100.00
62942;BME280;49042;47.318;19.874;2023-01-10T01:06:24;99056.13;;;6.13;100.00
62942;BME280;49042;47.318;19.874;2023-01-10T01:09:27;99056.69;;;6.03;100.00
62942;BME280;49042;47.318;19.874;2023-01-10T01:12:29;99057.09;;;5.86;100.00
62942;BME280;49042;47.318;19.874;2023-01-10T01:15:32;99058.72;;;5.82;100.00
62942;BME280;49042;47.318;19.874;2023-01-10T01:18:35;99061.56;;;5.92;100.00
62942;BME280;49042;47.318;19.874;2023-01-10T01:21:37;99057.94;;;5.85;100.00
62942;BME280;49042;47.318;19.874;2023-01-10T01:24:40;99062.78;;;5.72;100.00
62942;BME280;49042;47.318;19.874;2023-01-10T01:27:42;99072.59;;;5.55;100.00
62942;BME280;49042;47.318;19.874;2023-01-10T01:30:43;99076.63;;;5.45;100.00
62942;BME280;49042;47.318;19.874;2023-01-10T01:33:45;99068.12;;;5.48;100.00
62942;BME280;49042;47.318;19.874;2023-01-10T01:36:47;99064.00;;;5.54;100.00
62942;BME280;49042;47.318;19.874;2023-01-10T01:39:49;99058.69;;;5.50;100.00
62942;BME280;49042;47.318;19.874;2023-01-10T01:42:51;99062.25;;;5.53;100.00
62942;BME280;49042;47.318;19.874;2023-01-10T01:45:59;99063.03;;;5.51;100.00
62942;BME280;49042;47.318;19.874;2023-01-10T01:49:03;99057.94;;;5.54;100.00
62942;BME280;49042;47.318;19.874;2023-01-10T01:52:28;99065.47;;;5.46;100.00
62942;BME280;49042;47.318;19.874;2023-01-10T01:55:36;99068.28;;;5.54;100.00
62942;BME280;49042;47.318;19.874;2023-01-10T01:59:00;99063.13;;;5.54;100.00
62942;BME280;49042;47.318;19.874;2023-01-10T02:02:08;99056.44;;;5.62;100.00
62942;BME280;49042;47.318;19.874;2023-01-10T02:05:14;99045.34;;;5.66;100.00
62942;BME280;49042;47.318;19.874;2023-01-10T02:08:16;99059.50;;;5.79;100.00
62942;BME280;49042;47.318;19.874;2023-01-10T02:11:18;99058.28;;;5.66;100.00
62942;BME280;49042;47.318;19.874;2023-01-10T02:14:20;99050.53;;;5.66;100.00
62942;BME280;49042;47.318;19.874;2023-01-10T02:17:23;99059.25;;;5.70;100.00
62942;BME280;49042;47.318;19.874;2023-01-10T02:20:27;99052.53;;;5.77;100.00
62942;BME280;49042;47.318;19.874;2023-01-10T02:33:22;99051.25;;;5.62;100.00
62942;BME280;49042;47.318;19.874;2023-01-10T02:43:07;99060.88;;;5.66;100.00
62942;BME280;49042;47.318;19.874;2023-01-10T02:46:16;99059.03;;;5.62;100.00
62942;BME280;49042;47.318;19.874;2023-01-10T02:49:21;99053.69;;;5.56;100.00
62942;BME280;49042;47.318;19.874;2023-01-10T02:52:27;99049.56;;;5.63;100.00
62942;BME280;49042;47.318;19.874;2023-01-10T02:55:47;99040.81;;;5.57;100.00
62942;BME280;49042;47.318;19.874;2023-01-10T03:09:33;99052.69;;;5.51;100.00
62942;BME280;49042;47.318;19.874;2023-01-10T03:15:41;99068.28;;;5.54;100.00
62942;BME280;49042;47.318;19.874;2023-01-10T03:19:07;99077.75;;;5.53;100.00
62942;BME280;49042;47.318;19.874;2023-01-10T03:22:10;99069.25;;;5.57;100.00
62942;BME280;49042;47.318;19.874;2023-01-10T03:25:15;99075.25;;;5.56;100.00
62942;BME280;49042;47.318;19.874;2023-01-10T03:28:29;99069.38;;;5.62;100.00
62942;BME280;49042;47.318;19.874;2023-01-10T03:31:39;99077.34;;;5.68;100.00
62942;BME280;49042;47.318;19.874;2023-01-10T03:34:42;99072.94;;;5.66;100.00
62942;BME280;49042;47.318;19.874;2023-01-10T03:37:54;99071.94;;;5.61;100.00
62942;BME280;49042;47.318;19.874;2023-01-10T03:47:47;99078.16;;;5.67;100.00
62942;BME280;49042;47.318;19.874;2023-01-10T03:50:52;99070.47;;;5.71;100.00
62942;BME280;49042;47.318;19.874;2023-01-10T03:53:54;99073.13;;;5.72;100.00
62942;BME280;49042;47.318;19.874;2023-01-10T03:56:59;99079.16;;;5.73;100.00
62942;BME280;49042;47.318;19.874;2023-01-10T04:00:03;99066.19;;;5.71;100.00
62942;BME280;49042;47.318;19.874;2023-01-10T04:03:05;99071.87;;;5.90;100.00
62942;BME280;49042;47.318;19.874;2023-01-10T04:06:10;99078.31;;;5.72;100.00
62942;BME280;49042;47.318;19.874;2023-01-10T04:09:11;99077.53;;;5.76;100.00
62942;BME280;49042;47.318;19.874;2023-01-10T04:12:14;99076.78;;;5.81;100.00
62942;BME280;49042;47.318;19.874;2023-01-10T04:15:16;99076.72;;;5.77;100.00
62942;BME280;49042;47.318;19.874;2023-01-10T04:18:17;99062.66;;;5.69;100.00
62942;BME280;49042;47.318;19.874;2023-01-10T04:21:20;99068.94;;;5.77;100.00
62942;BME280;49042;47.318;19.874;2023-01-10T04:24:21;99064.44;;;5.70;100.00
62942;BME280;49042;47.318;19.874;2023-01-10T04:27:23;99066.97;;;5.68;100.00
62942;BME280;49042;47.318;19.874;2023-01-10T04:30:25;99067.22;;;5.78;100.00
62942;BME280;49042;47.318;19.874;2023-01-10T04:33:27;99070.72;;;5.78;100.00
62942;BME280;49042;47.318;19.874;2023-01-10T04:36:29;99075.56;;;5.67;100.00
62942;BME280;49042;47.318;19.874;2023-01-10T04:39:31;99080.25;;;5.81;100.00
62942;BME280;49042;47.318;19.874;2023-01-10T04:42:33;99076.84;;;5.82;100.00
62942;BME280;49042;47.318;19.874;2023-01-10T04:45:34;99083.66;;;5.78;100.00
62942;BME280;49042;47.318;19.874;2023-01-10T04:48:36;99089.41;;;5.70;100.00
62942;BME280;49042;47.318;19.874;2023-01-10T04:51:38;99095.53;;;5.72;100.00
62942;BME280;49042;47.318;19.874;2023-01-10T04:54:40;99096.34;;;5.71;100.00
62942;BME280;49042;47.318;19.874;2023-01-10T04:57:41;99095.72;;;5.79;100.00
62942;BME280;49042;47.318;19.874;2023-01-10T05:00:43;99093.69;;;5.67;100.00
62942;BME280;49042;47.318;19.874;2023-01-10T05:03:49;99089.56;;;5.74;100.00
62942;BME280;49042;47.318;19.874;2023-01-10T05:06:51;99099.28;;;5.83;100.00
62942;BME280;49042;47.318;19.874;2023-01-10T05:09:53;99102.16;;;5.94;100.00
62942;BME280;49042;47.318;19.874;2023-01-10T05:12:54;99114.03;;;5.86;100.00
62942;BME280;49042;47.318;19.874;2023-01-10T05:15:57;99125.78;;;5.74;100.00
62942;BME280;49042;47.318;19.874;2023-01-10T05:18:59;99125.91;;;5.79;100.00
62942;BME280;49042;47.318;19.874;2023-01-10T05:22:00;99136.22;;;5.77;100.00
62942;BME280;49042;47.318;19.874;2023-01-10T05:25:02;99143.97;;;5.77;100.00
62942;BME280;49042;47.318;19.874;2023-01-10T05:28:04;99146.53;;;5.76;100.00
62942;BME280;49042;47.318;19.874;2023-01-10T05:31:08;99128.06;;;5.94;100.00
62942;BME280;49042;47.318;19.874;2023-01-10T05:34:11;99131.59;;;5.98;100.00
62942;BME280;49042;47.318;19.874;2023-01-10T05:37:13;99135.22;;;5.72;100.00
62942;BME280;49042;47.318;19.874;2023-01-10T05:40:15;99140.09;;;5.63;100.00
62942;BME280;49042;47.318;19.874;2023-01-10T05:43:17;99139.22;;;5.62;100.00
62942;BME280;49042;47.318;19.874;2023-01-10T05:46:18;99131.03;;;5.77;100.00
62942;BME280;49042;47.318;19.874;2023-01-10T05:49:20;99136.84;;;5.68;100.00
62942;BME280;49042;47.318;19.874;2023-01-10T05:52:22;99138.97;;;5.84;100.00
62942;BME280;49042;47.318;19.874;2023-01-10T05:55:23;99140.66;;;5.82;100.00
62942;BME280;49042;47.318;19.874;2023-01-10T05:58:26;99162.50;;;5.62;100.00
62942;BME280;49042;47.318;19.874;2023-01-10T06:01:28;99168.53;;;5.61;100.00
62942;BME280;49042;47.318;19.874;2023-01-10T06:04:30;99162.81;;;5.73;100.00
62942;BME280;49042;47.318;19.874;2023-01-10T06:07:31;99154.06;;;5.68;100.00
62942;BME280;49042;47.318;19.874;2023-01-10T06:10:33;99164.66;;;5.48;100.00
62942;BME280;49042;47.318;19.874;2023-01-10T06:13:35;99152.69;;;5.52;100.00
62942;BME280;49042;47.318;19.874;2023-01-10T06:16:37;99161.94;;;5.73;100.00
62942;BME280;49042;47.318;19.874;2023-01-10T06:19:38;99168.53;;;5.61;100.00
62942;BME280;49042;47.318;19.874;2023-01-10T06:22:41;99165.69;;;5.53;100.00
62942;BME280;49042;47.318;19.874;2023-01-10T06:25:43;99172.91;;;5.64;100.00
62942;BME280;49042;47.318;19.874;2023-01-10T06:28:45;99169.59;;;5.68;100.00
62942;BME280;49042;47.318;19.874;2023-01-10T06:31:47;99161.03;;;5.71;100.00
62942;BME280;49042;47.318;19.874;2023-01-10T06:34:49;99168.94;;;5.75;100.00
62942;BME280;49042;47.318;19.874;2023-01-10T06:37:50;99176.72;;;5.77;100.00
62942;BME280;49042;47.318;19.874;2023-01-10T06:40:52;99188.09;;;5.53;100.00
62942;BME280;49042;47.318;19.874;2023-01-10T06:43:54;99191.50;;;5.52;100.00
62942;BME280;49042;47.318;19.874;2023-01-10T06:46:55;99195.28;;;5.62;100.00
62942;BME280;49042;47.318;19.874;2023-01-10T06:49:57;99205.75;;;5.66;100.00
62942;BME280;49042;47.318;19.874;2023-01-10T06:53:03;99213.56;;;5.68;100.00
62942;BME280;49042;47.318;19.874;2023-01-10T06:56:05;99212.09;;;5.49;100.00
62942;BME280;49042;47.318;19.874;2023-01-10T06:59:07;99223.72;;;5.62;100.00
62942;BME280;49042;47.318;19.874;2023-01-10T07:02:10;99229.22;;;5.73;100.00
62942;BME280;49042;47.318;19.874;2023-01-10T07:05:12;99237.47;;;5.61;100.00
62942;BME280;49042;47.318;19.874;2023-01-10T07:08:14;99248.03;;;5.67;100.00
62942;BME280;49042;47.318;19.874;2023-01-10T07:11:16;99247.03;;;5.63;100.00
62942;BME280;49042;47.318;19.874;2023-01-10T07:14:18;99253.72;;;5.56;100.00
62942;BME280;49042;47.318;19.874;2023-01-10T07:17:20;99257.38;;;5.63;100.00
62942;BME280;49042;47.318;19.874;2023-01-10T07:20:21;99263.78;;;5.47;100.00
62942;BME280;49042;47.318;19.874;2023-01-10T07:23:23;99265.00;;;5.59;100.00
62942;BME280;49042;47.318;19.874;2023-01-10T07:26:25;99286.66;;;5.62;100.00
62942;BME280;49042;47.318;19.874;2023-01-10T07:29:26;99281.78;;;5.44;100.00
62942;BME280;49042;47.318;19.874;2023-01-10T07:32:28;99291.63;;;5.54;100.00
62942;BME280;49042;47.318;19.874;2023-01-10T07:35:30;99295.06;;;5.55;100.00
62942;BME280;49042;47.318;19.874;2023-01-10T07:38:32;99297.31;;;5.44;100.00
62942;BME280;49042;47.318;19.874;2023-01-10T07:41:33;99306.66;;;5.40;100.00
62942;BME280;49042;47.318;19.874;2023-01-10T07:44:35;99305.00;;;5.42;100.00
62942;BME280;49042;47.318;19.874;2023-01-10T07:47:37;99303.59;;;5.52;100.00
62942;BME280;49042;47.318;19.874;2023-01-10T07:50:38;99306.09;;;5.49;100.00
62942;BME280;49042;47.318;19.874;2023-01-10T07:53:40;99315.63;;;5.50;100.00
62942;BME280;49042;47.318;19.874;2023-01-10T07:56:42;99317.84;;;5.39;100.00
62942;BME280;49042;47.318;19.874;2023-01-10T07:59:44;99324.19;;;5.49;100.00
62942;BME280;49042;47.318;19.874;2023-01-10T08:02:46;99326.09;;;5.55;100.00
62942;BME280;49042;47.318;19.874;2023-01-10T08:05:48;99323.44;;;5.79;100.00
62942;BME280;49042;47.318;19.874;2023-01-10T08:08:49;99321.34;;;5.67;100.00
62942;BME280;49042;47.318;19.874;2023-01-10T08:11:51;99319.62;;;5.68;100.00
62942;BME280;49042;47.318;19.874;2023-01-10T08:14:53;99322.59;;;5.81;100.00
62942;BME280;49042;47.318;19.874;2023-01-10T08:17:58;99331.16;;;5.78;100.00
62942;BME280;49042;47.318;19.874;2023-01-10T08:21:00;99331.25;;;5.81;100.00
62942;BME280;49042;47.318;19.874;2023-01-10T08:24:02;99351.50;;;5.93;100.00
62942;BME280;49042;47.318;19.874;2023-01-10T08:27:04;99347.66;;;5.82;100.00
62942;BME280;49042;47.318;19.874;2023-01-10T08:30:06;99354.03;;;5.92;100.00
62942;BME280;49042;47.318;19.874;2023-01-10T08:33:09;99364.91;;;5.81;100.00
62942;BME280;49042;47.318;19.874;2023-01-10T08:36:16;99360.19;;;5.95;100.00
62942;BME280;49042;47.318;19.874;2023-01-10T08:39:19;99366.03;;;5.89;100.00
62942;BME280;49042;47.318;19.874;2023-01-10T08:42:22;99379.91;;;5.65;100.00
62942;BME280;49042;47.318;19.874;2023-01-10T08:45:24;99394.16;;;5.78;100.00
62942;BME280;49042;47.318;19.874;2023-01-10T08:48:26;99391.81;;;5.86;100.00
62942;BME280;49042;47.318;19.874;2023-01-10T08:51:28;99399.81;;;5.94;100.00
62942;BME280;49042;47.318;19.874;2023-01-10T08:54:29;99411.47;;;5.81;100.00
62942;BME280;49042;47.318;19.874;2023-01-10T08:57:31;99418.88;;;5.96;100.00
62942;BME280;49042;47.318;19.874;2023-01-10T09:00:33;99420.94;;;5.81;100.00
62942;BME280;49042;47.318;19.874;2023-01-10T09:03:34;99430.28;;;5.75;100.00
62942;BME280;49042;47.318;19.874;2023-01-10T09:06:36;99444.63;;;5.67;100.00
62942;BME280;49042;47.318;19.874;2023-01-10T09:09:38;99453.56;;;5.75;100.00
62942;BME280;49042;47.318;19.874;2023-01-10T09:12:39;99473.47;;;5.78;100.00
62942;BME280;49042;47.318;19.874;2023-01-10T09:15:57;99472.88;;;5.85;100.00
62942;BME280;49042;47.318;19.874;2023-01-10T09:18:59;99470.06;;;5.79;100.00
62942;BME280;49042;47.318;19.874;2023-01-10T09:22:01;99473.50;;;5.79;100.00
62942;BME280;49042;47.318;19.874;2023-01-10T09:25:03;99481.13;;;6.01;100.00
62942;BME280;49042;47.318;19.874;2023-01-10T09:28:05;99488.97;;;7.12;100.00
62942;BME280;49042;47.318;19.874;2023-01-10T09:31:07;99485.88;;;6.95;100.00
62942;BME280;49042;47.318;19.874;2023-01-10T09:34:09;99489.31;;;6.38;100.00
62942;BME280;49042;47.318;19.874;2023-01-10T09:37:11;99503.09;;;6.37;100.00
62942;BME280;49042;47.318;19.874;2023-01-10T09:40:15;99503.19;;;6.40;100.00
62942;BME280;49042;47.318;19.874;2023-01-10T09:46:49;99502.31;;;6.14;100.00
62942;BME280;49042;47.318;19.874;2023-01-10T09:53:18;99526.88;;;6.00;100.00
62942;BME280;49042;47.318;19.874;2023-01-10T09:56:22;99521.47;;;5.94;100.00
62942;BME280;49042;47.318;19.874;2023-01-10T09:59:25;99519.56;;;5.88;100.00
62942;BME280;49042;47.318;19.874;2023-01-10T10:02:35;99525.91;;;5.72;100.00
62942;BME280;49042;47.318;19.874;2023-01-10T10:05:39;99529.03;;;5.88;100.00
62942;BME280;49042;47.318;19.874;2023-01-10T10:08:43;99524.34;;;5.77;100.00
62942;BME280;49042;47.318;19.874;2023-01-10T10:11:59;99529.00;;;5.86;100.00
62942;BME280;49042;47.318;19.874;2023-01-10T10:15:12;99531.91;;;5.71;100.00
62942;BME280;49042;47.318;19.874;2023-01-10T10:28:27;99564.97;;;5.80;100.00
62942;BME280;49042;47.318;19.874;2023-01-10T10:34:47;99560.66;;;5.79;100.00
62942;BME280;49042;47.318;19.874;2023-01-10T10:37:51;99555.47;;;5.79;100.00
62942;BME280;49042;47.318;19.874;2023-01-10T10:40:57;99563.22;;;5.79;100.00
62942;BME280;49042;47.318;19.874;2023-01-10T10:44:04;99567.13;;;5.67;100.00
62942;BME280;49042;47.318;19.874;2023-01-10T10:47:18;99574.34;;;5.76;100.00
62942;BME280;49042;47.318;19.874;2023-01-10T10:50:34;99587.44;;;5.81;100.00
62942;BME280;49042;47.318;19.874;2023-01-10T10:53:36;99591.69;;;5.79;100.00
62942;BME280;49042;47.318;19.874;2023-01-10T10:56:38;99593.28;;;5.75;100.00
62942;BME280;49042;47.318;19.874;2023-01-10T10:59:43;99599.38;;;5.77;100.00
62942;BME280;49042;47.318;19.874;2023-01-10T11:06:16;99615.28;;;5.64;100.00
62942;BME280;49042;47.318;19.874;2023-01-10T11:09:22;99612.31;;;5.77;100.00
62942;BME280;49042;47.318;19.874;2023-01-10T11:12:32;99612.22;;;5.74;100.00
62942;BME280;49042;47.318;19.874;2023-01-10T11:15:42;99616.62;;;5.77;100.00
62942;BME280;49042;47.318;19.874;2023-01-10T11:18:44;99613.88;;;5.72;100.00
62942;BME280;49042;47.318;19.874;2023-01-10T11:21:49;99617.69;;;5.82;100.00
62942;BME280;49042;47.318;19.874;2023-01-10T11:24:58;99612.87;;;5.68;100.00
62942;BME280;49042;47.318;19.874;2023-01-10T11:28:02;99614.97;;;7.05;100.00
62942;BME280;49042;47.318;19.874;2023-01-10T11:31:03;99620.19;;;7.64;100.00
62942;BME280;49042;47.318;19.874;2023-01-10T11:34:18;99626.09;;;7.60;100.00
62942;BME280;49042;47.318;19.874;2023-01-10T11:37:26;99634.50;;;8.11;100.00
62942;BME280;49042;47.318;19.874;2023-01-10T11:40:33;99651.69;;;8.39;100.00
62942;BME280;49042;47.318;19.874;2023-01-10T11:43:39;99649.91;;;8.38;100.00
62942;BME280;49042;47.318;19.874;2023-01-10T11:46:43;99649.91;;;8.38;100.00
62942;BME280;49042;47.318;19.874;2023-01-10T11:49:47;99654.38;;;7.50;100.00
62942;BME280;49042;47.318;19.874;2023-01-10T11:52:50;99655.66;;;6.56;100.00
62942;BME280;49042;47.318;19.874;2023-01-10T11:55:53;99664.16;;;6.51;100.00
62942;BME280;49042;47.318;19.874;2023-01-10T11:58:56;99663.63;;;6.36;100.00
62942;BME280;49042;47.318;19.874;2023-01-10T12:02:24;99670.06;;;6.23;100.00
62942;BME280;49042;47.318;19.874;2023-01-10T12:05:27;99668.75;;;6.09;100.00
62942;BME280;49042;47.318;19.874;2023-01-10T12:08:34;99681.25;;;5.98;100.00
62942;BME280;49042;47.318;19.874;2023-01-10T12:11:37;99683.53;;;5.91;100.00
62942;BME280;49042;47.318;19.874;2023-01-10T12:14:38;99679.78;;;5.82;100.00
62942;BME280;49042;47.318;19.874;2023-01-10T12:17:40;99690.50;;;5.68;100.00
62942;BME280;49042;47.318;19.874;2023-01-10T12:20:47;99701.59;;;5.66;100.00
62942;BME280;49042;47.318;19.874;2023-01-10T12:23:50;99705.44;;;5.76;100.00
62942;BME280;49042;47.318;19.874;2023-01-10T12:26:54;99712.00;;;5.67;100.00
62942;BME280;49042;47.318;19.874;2023-01-10T12:33:03;99712.47;;;5.57;100.00
62942;BME280;49042;47.318;19.874;2023-01-10T12:36:15;99731.84;;;5.45;100.00
62942;BME280;49042;47.318;19.874;2023-01-10T12:39:23;99733.50;;;5.43;100.00
62942;BME280;49042;47.318;19.874;2023-01-10T12:46:17;99741.75;;;5.34;100.00
62942;BME280;49042;47.318;19.874;2023-01-10T12:50:13;99752.94;;;5.33;100.00
62942;BME280;49042;47.318;19.874;2023-01-10T12:53:24;99759.81;;;5.33;100.00
62942;BME280;49042;47.318;19.874;2023-01-10T12:56:29;99767.63;;;5.34;100.00
62942;BME280;49042;47.318;19.874;2023-01-10T12:59:35;99776.38;;;5.17;100.00
62942;BME280;49042;47.318;19.874;2023-01-10T13:02:41;99779.28;;;5.24;100.00
62942;BME280;49042;47.318;19.874;2023-01-10T13:05:47;99791.31;;;5.24;100.00
62942;BME280;49042;47.318;19.874;2023-01-10T13:08:49;99791.41;;;5.06;100.00
62942;BME280;49042;47.318;19.874;2023-01-10T13:15:29;99797.00;;;5.15;100.00
62942;BME280;49042;47.318;19.874;2023-01-10T13:18:32;99803.78;;;5.13;100.00
62942;BME280;49042;47.318;19.874;2023-01-10T13:21:37;99808.97;;;5.13;100.00
62942;BME280;49042;47.318;19.874;2023-01-10T13:24:39;99810.13;;;5.00;100.00
62942;BME280;49042;47.318;19.874;2023-01-10T13:27:41;99824.16;;;5.05;100.00
62942;BME280;49042;47.318;19.874;2023-01-10T13:30:50;99829.59;;;5.11;100.00
62942;BME280;49042;47.318;19.874;2023-01-10T13:34:01;99838.03;;;5.07;100.00
62942;BME280;49042;47.318;19.874;2023-01-10T13:37:10;99852.50;;;5.23;100.00
62942;BME280;49042;47.318;19.874;2023-01-10T13:40:22;99863.13;;;5.30;100.00
62942;BME280;49042;47.318;19.874;2023-01-10T13:46:40;99861.22;;;5.25;100.00
62942;BME280;49042;47.318;19.874;2023-01-10T13:49:43;99860.84;;;5.38;100.00
62942;BME280;49042;47.318;19.874;2023-01-10T13:52:44;99877.94;;;5.14;100.00
62942;BME280;49042;47.318;19.874;2023-01-10T13:58:54;99892.19;;;5.04;100.00
62942;BME280;49042;47.318;19.874;2023-01-10T14:02:22;99902.44;;;5.02;100.00
62942;BME280;49042;47.318;19.874;2023-01-10T14:05:30;99903.72;;;5.12;100.00
62942;BME280;49042;47.318;19.874;2023-01-10T14:08:32;99905.44;;;5.12;100.00
62942;BME280;49042;47.318;19.874;2023-01-10T14:14:54;99924.28;;;5.09;100.00
62942;BME280;49042;47.318;19.874;2023-01-10T14:18:03;99939.47;;;5.01;100.00
62942;BME280;49042;47.318;19.874;2023-01-10T14:21:08;99950.59;;;5.20;100.00
62942;BME280;49042;47.318;19.874;2023-01-10T14:24:31;99956.66;;;5.21;100.00
62942;BME280;49042;47.318;19.874;2023-01-10T14:27:44;99969.38;;;5.16;100.00
62942;BME280;49042;47.318;19.874;2023-01-10T14:31:00;99981.97;;;5.08;100.00
62942;BME280;49042;47.318;19.874;2023-01-10T14:34:03;99980.56;;;5.15;100.00
62942;BME280;49042;47.318;19.874;2023-01-10T15:16:17;100056.19;;;5.11;100.00
62942;BME280;49042;47.318;19.874;2023-01-10T15:19:22;100062.25;;;5.11;100.00
62942;BME280;49042;47.318;19.874;2023-01-10T15:22:28;100075.59;;;5.39;100.00
62942;BME280;49042;47.318;19.874;2023-01-10T15:25:33;100083.47;;;5.22;100.00
62942;BME280;49042;47.318;19.874;2023-01-10T15:28:39;100085.00;;;5.19;100.00
62942;BME280;49042;47.318;19.874;2023-01-10T15:31:41;100095.78;;;5.10;100.00
62942;BME280;49042;47.318;19.874;2023-01-10T15:34:47;100102.34;;;5.03;100.00
62942;BME280;49042;47.318;19.874;2023-01-10T15:37:56;100100.00;;;4.89;100.00
62942;BME280;49042;47.318;19.874;2023-01-10T15:41:02;100100.16;;;4.92;100.00
62942;BME280;49042;47.318;19.874;2023-01-10T15:44:30;100110.41;;;4.91;100.00
62942;BME280;49042;47.318;19.874;2023-01-10T15:51:19;100121.78;;;4.76;100.00
62942;BME280;49042;47.318;19.874;2023-01-10T15:57:30;100121.09;;;4.62;100.00
62942;BME280;49042;47.318;19.874;2023-01-10T16:00:33;100119.94;;;4.57;100.00
62942;BME280;49042;47.318;19.874;2023-01-10T16:03:37;100126.50;;;4.50;100.00
62942;BME280;49042;47.318;19.874;2023-01-10T16:06:40;100130.78;;;4.49;100.00
62942;BME280;49042;47.318;19.874;2023-01-10T16:09:48;100137.12;;;4.38;100.00
62942;BME280;49042;47.318;19.874;2023-01-10T16:12:52;100128.69;;;4.42;100.00
62942;BME280;49042;47.318;19.874;2023-01-10T16:16:16;100142.00;;;4.50;100.00
62942;BME280;49042;47.318;19.874;2023-01-10T16:19:19;100143.31;;;4.42;100.00
62942;BME280;49042;47.318;19.874;2023-01-10T16:22:20;100147.94;;;4.31;100.00
62942;BME280;49042;47.318;19.874;2023-01-10T16:25:34;100152.84;;;4.26;100.00
62942;BME280;49042;47.318;19.874;2023-01-10T16:28:37;100157.44;;;4.48;100.00
62942;BME280;49042;47.318;19.874;2023-01-10T16:31:39;100161.31;;;4.23;100.00
62942;BME280;49042;47.318;19.874;2023-01-10T16:34:41;100162.84;;;4.20;100.00
62942;BME280;49042;47.318;19.874;2023-01-10T16:37:47;100157.91;;;4.24;100.00
62942;BME280;49042;47.318;19.874;2023-01-10T16:40:51;100166.81;;;4.30;100.00
62942;BME280;49042;47.318;19.874;2023-01-10T16:43:54;100174.62;;;4.31;100.00
62942;BME280;49042;47.318;19.874;2023-01-10T16:46:56;100172.84;;;4.30;100.00
62942;BME280;49042;47.318;19.874;2023-01-10T16:49:58;100175.34;;;4.28;100.00
62942;BME280;49042;47.318;19.874;2023-01-10T16:53:00;100178.66;;;4.26;100.00
62942;BME280;49042;47.318;19.874;2023-01-10T16:56:01;100180.03;;;4.36;100.00
62942;BME280;49042;47.318;19.874;2023-01-10T16:59:03;100178.25;;;4.35;100.00
62942;BME280;49042;47.318;19.874;2023-01-10T17:02:15;100186.81;;;4.34;100.00
62942;BME280;49042;47.318;19.874;2023-01-10T17:05:18;100190.59;;;4.41;100.00
62942;BME280;49042;47.318;19.874;2023-01-10T17:08:22;100197.31;;;4.37;100.00
62942;BME280;49042;47.318;19.874;2023-01-10T17:11:35;100199.72;;;4.34;100.00
62942;BME280;49042;47.318;19.874;2023-01-10T17:14:38;100204.06;;;4.35;100.00
62942;BME280;49042;47.318;19.874;2023-01-10T17:17:41;100204.41;;;4.41;100.00
62942;BME280;49042;47.318;19.874;2023-01-10T17:20:45;100208.53;;;4.37;100.00
62942;BME280;49042;47.318;19.874;2023-01-10T17:23:48;100202.38;;;4.35;100.00
62942;BME280;49042;47.318;19.874;2023-01-10T17:26:50;100211.66;;;4.32;100.00
62942;BME280;49042;47.318;19.874;2023-01-10T17:29:52;100210.75;;;4.31;100.00
62942;BME280;49042;47.318;19.874;2023-01-10T17:32:56;100220.28;;;4.32;100.00
62942;BME280;49042;47.318;19.874;2023-01-10T17:35:59;100223.69;;;4.31;100.00
62942;BME280;49042;47.318;19.874;2023-01-10T17:39:01;100221.75;;;4.44;100.00
62942;BME280;49042;47.318;19.874;2023-01-10T17:42:04;100237.72;;;4.36;100.00
62942;BME280;49042;47.318;19.874;2023-01-10T17:45:06;100232.56;;;4.36;100.00
62942;BME280;49042;47.318;19.874;2023-01-10T17:48:09;100236.44;;;4.45;100.00
62942;BME280;49042;47.318;19.874;2023-01-10T17:51:13;100236.19;;;4.40;100.00
62942;BME280;49042;47.318;19.874;2023-01-10T17:54:15;100241.28;;;4.38;100.00
62942;BME280;49042;47.318;19.874;2023-01-10T17:57:17;100245.00;;;4.44;100.00
62942;BME280;49042;47.318;19.874;2023-01-10T18:00:19;100248.47;;;4.44;100.00
62942;BME280;49042;47.318;19.874;2023-01-10T18:03:20;100246.44;;;4.38;100.00
62942;BME280;49042;47.318;19.874;2023-01-10T18:06:22;100249.22;;;4.42;100.00
62942;BME280;49042;47.318;19.874;2023-01-10T18:09:26;100249.00;;;4.38;100.00